»·PEaware :: N815M KAVX-KSAN

N815M :: KAVX-KSAN

FLIGHT INFORMATION

Flight Status: Arrived
Operator: Privately registered:
United States
More flights under this callsign
Pilot: Robert C. (30425)
Aircraft: BEECH AIRCRAFT DEBONAIR BONANZA
(BE33)
More flights by this aircraft type
Origin: KAVX Catalina
United States
Destination: KSAN San Diego Intl-Lindbergh
United States
More flights between these airports :: More routes between these airports
Route: SXC V208 OCN V23 MZB
File this flight plan on PilotEdge
Remarks: TEC ROUTE CSTP56
Altitude:
(Current/Filed)
5,000ft
Speed:
(Current/Filed)
150kts
Departed: 05-Oct-20 08:48 AM
Arrived: 05-Oct-20 09:36 AM
Distance/Time
Traveled:
74nm/0:48
Distance/Time
To Go:
Arrived

Flight Plot

Page will automatically refresh every two minutes.


Map Options




Map Legend


Flown Route
Filed Route
Departure Airport
Arrival Airport
Navaid (VOR, NDB)
Fix

Horizontal Profiles

Position Reports

Time Latitude Longitude Heading Altitude Ground
Speed
05-Oct-20 08:19 33.403881 -118.414878 254 1587ft 0kts
05-Oct-20 08:20 33.403881 -118.414878 254 1587ft 0kts
05-Oct-20 08:21 33.403881 -118.414878 254 1587ft 0kts
05-Oct-20 08:22 33.403881 -118.414878 254 1587ft 0kts
05-Oct-20 08:23 33.403881 -118.414878 254 1587ft 0kts
05-Oct-20 08:24 33.403881 -118.414878 254 1587ft 0kts
05-Oct-20 08:25 33.403881 -118.414878 254 1587ft 0kts
05-Oct-20 08:26 33.403881 -118.414878 254 1587ft 0kts
05-Oct-20 08:27 33.403881 -118.414878 254 1587ft 0kts
05-Oct-20 08:28 33.403881 -118.414878 254 1587ft 0kts
05-Oct-20 08:29 33.403881 -118.414878 254 1587ft 0kts
05-Oct-20 08:30 33.403881 -118.414878 254 1587ft 0kts
05-Oct-20 08:31 33.403881 -118.414878 254 1587ft 0kts
05-Oct-20 08:32 33.403881 -118.414878 254 1587ft 0kts
05-Oct-20 08:33 33.403881 -118.414878 254 1587ft 0kts
05-Oct-20 08:34 33.403881 -118.414878 254 1587ft 0kts
05-Oct-20 08:35 33.403881 -118.414878 254 1587ft 0kts
05-Oct-20 08:36 33.403881 -118.414878 254 1587ft 0kts
05-Oct-20 08:37 33.403881 -118.414878 254 1587ft 0kts
05-Oct-20 08:39 33.403881 -118.414878 254 1587ft 0kts
05-Oct-20 08:40 33.403881 -118.414878 254 1587ft 0kts
05-Oct-20 08:41 33.403869 -118.414915 248 1587ft 0kts
05-Oct-20 08:42 33.403725 -118.415192 228 1589ft 3kts
05-Oct-20 08:43 33.403482 -118.416319 294 1596ft 0kts
05-Oct-20 08:44 33.402490 -118.419268 233 1605ft 14kts
05-Oct-20 08:45 33.402297 -118.419591 249 1606ft 0kts
05-Oct-20 08:46 33.402297 -118.419591 249 1606ft 0kts
05-Oct-20 08:47 33.402311 -118.419800 316 1606ft 6kts
05-Oct-20 08:48 33.411272 -118.406889 49 1802ft 89kts
05-Oct-20 08:49 33.431633 -118.378150 64 2473ft 129kts
05-Oct-20 08:50 33.415698 -118.337127 122 3123ft 138kts
05-Oct-20 08:51 33.394526 -118.299613 124 3719ft 125kts
05-Oct-20 08:52 33.371565 -118.265844 128 4308ft 134kts
05-Oct-20 08:53 33.353039 -118.223460 105 4852ft 144kts
05-Oct-20 08:53 33.344810 -118.181453 100 4988ft 159kts
05-Oct-20 08:55 33.335703 -118.118695 98 5021ft 151kts
05-Oct-20 08:56 33.329291 -118.070493 98 5029ft 145kts
05-Oct-20 08:56 33.323991 -118.030680 98 5023ft 147kts
05-Oct-20 08:58 33.316359 -117.973505 98 5015ft 148kts
05-Oct-20 08:59 33.309762 -117.924215 98 5007ft 149kts
05-Oct-20 08:59 33.304258 -117.883198 98 5000ft 150kts
05-Oct-20 09:00 33.297603 -117.833740 98 4991ft 150kts
05-Oct-20 09:01 33.290904 -117.784127 98 4990ft 150kts
05-Oct-20 09:02 33.283962 -117.734553 99 4990ft 150kts
05-Oct-20 09:03 33.276491 -117.684771 99 4990ft 150kts
05-Oct-20 09:04 33.269028 -117.635323 99 4990ft 150kts
05-Oct-20 09:05 33.261361 -117.584685 99 4989ft 150kts
05-Oct-20 09:06 33.255116 -117.535116 97 4979ft 151kts
05-Oct-20 09:07 33.249039 -117.485362 97 4979ft 150kts
05-Oct-20 09:08 33.242765 -117.434058 97 4979ft 150kts
05-Oct-20 09:09 33.207472 -117.404809 156 4977ft 153kts
05-Oct-20 09:10 33.166199 -117.386315 158 4984ft 153kts
05-Oct-20 09:11 33.125955 -117.369326 158 4982ft 153kts
05-Oct-20 09:12 33.091700 -117.354926 158 4981ft 153kts
05-Oct-20 09:13 33.048691 -117.336866 159 4982ft 153kts
05-Oct-20 09:14 33.017297 -117.323691 159 4983ft 153kts
05-Oct-20 09:15 32.977159 -117.306860 159 4985ft 152kts
05-Oct-20 09:16 32.936838 -117.289977 159 4987ft 152kts
05-Oct-20 09:17 32.894397 -117.272215 159 4988ft 152kts
05-Oct-20 09:18 32.856536 -117.247879 111 5008ft 147kts
05-Oct-20 09:19 32.839552 -117.200968 110 4992ft 142kts
05-Oct-20 09:20 32.823218 -117.155216 111 4996ft 141kts
05-Oct-20 09:21 32.806689 -117.108792 111 5000ft 141kts
05-Oct-20 09:22 32.789981 -117.062135 111 4999ft 141kts
05-Oct-20 09:23 32.773845 -117.017136 111 4998ft 140kts
05-Oct-20 09:24 32.758650 -116.974381 111 4998ft 138kts
05-Oct-20 09:25 32.743876 -116.932077 111 4998ft 137kts
05-Oct-20 09:26 32.725087 -116.892797 163 4784ft 150kts
05-Oct-20 09:27 32.685932 -116.902135 191 4018ft 131kts
05-Oct-20 09:28 32.671852 -116.939967 254 4003ft 130kts
05-Oct-20 09:29 32.683304 -116.988042 289 3653ft 164kts
05-Oct-20 09:30 32.698618 -117.046156 285 2642ft 168kts
05-Oct-20 09:31 32.710298 -117.094140 284 1809ft 117kts
05-Oct-20 09:32 32.718653 -117.128616 284 1090ft 108kts
05-Oct-20 09:33 32.725820 -117.158527 285 419ft 79kts
05-Oct-20 09:34 32.731901 -117.182863 284 20ft 56kts
05-Oct-20 09:35 32.734029 -117.188046 34 20ft 0kts
05-Oct-20 09:36 32.733985 -117.183258 105 20ft 13kts

Navigation Log

Ident Type
Flight plan parsing failed, navigation log unavailable